createdAt,value
2019-02-26T00:00:52.015Z,66.20
2019-02-26T00:01:53.002Z,66.49
2019-02-26T00:02:53.008Z,66.20
2019-02-26T00:03:51.231Z,66.20
2019-02-26T00:04:52.139Z,66.49
2019-02-26T00:05:52.206Z,66.39
2019-02-26T00:06:53.560Z,66.20
2019-02-26T00:07:53.291Z,66.20
2019-02-26T00:08:53.645Z,66.49
2019-02-26T00:09:55.059Z,66.20
2019-02-26T00:10:54.698Z,66.58
2019-02-26T00:11:52.321Z,66.67
2019-02-26T00:12:52.439Z,66.30
2019-02-26T00:13:54.430Z,66.20
2019-02-26T00:14:54.537Z,67.06
2019-02-26T00:15:52.844Z,66.77
2019-02-26T00:16:52.967Z,66.77
2019-02-26T00:17:53.138Z,66.55
2019-02-26T00:18:53.237Z,66.49
2019-02-26T00:19:53.362Z,66.36
2019-02-26T00:20:54.074Z,66.30
2019-02-26T00:21:54.433Z,66.20
2019-02-26T00:22:55.318Z,66.20
2019-02-26T00:23:53.877Z,66.39
2019-02-26T00:24:54.011Z,66.67
2019-02-26T00:25:54.138Z,66.74
2019-02-26T00:26:54.266Z,66.74
2019-02-26T00:27:56.412Z,66.67
2019-02-26T00:28:54.541Z,66.93
2019-02-26T00:29:55.196Z,66.83
2019-02-26T00:30:55.458Z,66.93
2019-02-26T00:31:57.554Z,66.64
2019-02-26T00:32:56.121Z,66.64
2019-02-26T00:33:55.234Z,66.55
2019-02-26T00:34:57.439Z,66.55
2019-02-26T00:35:55.479Z,66.64
2019-02-26T00:36:57.223Z,66.55
2019-02-26T00:37:55.917Z,66.55
2019-02-26T00:38:56.173Z,66.46
2019-02-26T00:39:56.423Z,66.55
2019-02-26T00:40:57.783Z,66.46
2019-02-26T00:41:58.081Z,66.55
2019-02-26T00:42:57.561Z,66.55
2019-02-26T00:43:57.797Z,66.93
2019-02-26T00:44:58.291Z,67.40
2019-02-26T00:45:58.341Z,67.31
2019-02-26T00:46:57.602Z,67.40
2019-02-26T00:47:57.107Z,66.55
2019-02-26T00:48:59.105Z,66.74
2019-02-26T00:49:57.370Z,66.83
2019-02-26T00:50:59.423Z,66.83
2019-02-26T00:51:57.619Z,66.55
2019-02-26T00:52:59.415Z,66.93
2019-02-26T00:53:59.738Z,66.93
2019-02-26T00:54:59.852Z,67.02
2019-02-26T00:55:59.397Z,67.50
2019-02-26T00:57:01.079Z,67.21
2019-02-26T00:57:59.188Z,67.50
2019-02-26T00:58:58.532Z,67.50
2019-02-26T01:00:00.747Z,68.16
2019-02-26T01:00:58.797Z,67.69
2019-02-26T01:01:59.381Z,67.69
2019-02-26T01:02:59.049Z,67.69
2019-02-26T01:03:59.183Z,67.50
2019-02-26T01:04:59.308Z,67.97
2019-02-26T01:06:01.487Z,67.50
2019-02-26T01:07:01.165Z,67.79
2019-02-26T01:07:59.723Z,67.50
2019-02-26T01:09:01.849Z,67.50
2019-02-26T01:09:59.977Z,67.21
2019-02-26T01:11:02.120Z,67.21
2019-02-26T01:12:00.235Z,67.50
2019-02-26T01:13:01.425Z,67.40
2019-02-26T01:14:00.484Z,67.12
2019-02-26T01:15:02.580Z,67.40
2019-02-26T01:16:00.742Z,67.59
2019-02-26T01:17:00.866Z,67.59
2019-02-26T01:18:03.087Z,67.69
2019-02-26T01:19:01.115Z,67.59
2019-02-26T01:20:03.516Z,67.88
2019-02-26T01:21:03.780Z,67.97
2019-02-26T01:22:01.496Z,68.35
2019-02-26T01:23:01.644Z,68.16
2019-02-26T01:24:03.767Z,67.97
2019-02-26T01:25:01.887Z,68.16
2019-02-26T01:26:02.016Z,67.97
2019-02-26T01:27:02.139Z,67.88
2019-02-26T01:28:02.266Z,67.88
2019-02-26T01:29:02.410Z,67.59
2019-02-26T01:30:03.428Z,67.97
2019-02-26T01:31:04.867Z,67.97
2019-02-26T01:32:02.795Z,68.16
2019-02-26T01:33:04.974Z,67.59
2019-02-26T01:34:03.044Z,67.69
2019-02-26T01:35:04.136Z,67.75
2019-02-26T01:36:03.307Z,67.56
2019-02-26T01:37:05.527Z,67.75
2019-02-26T01:38:03.565Z,67.59
2019-02-26T01:39:07.298Z,67.85
2019-02-26T01:40:07.323Z,68.13
2019-02-26T01:41:03.948Z,68.41
2019-02-26T01:42:04.100Z,68.13
2019-02-26T01:43:05.620Z,68.23
2019-02-26T01:44:04.348Z,68.23
2019-02-26T01:45:04.475Z,68.32
2019-02-26T01:46:04.601Z,68.13
2019-02-26T01:47:04.789Z,68.41
2019-02-26T01:48:06.335Z,68.51
2019-02-26T01:49:05.039Z,68.60
2019-02-26T01:50:06.960Z,68.13
2019-02-26T01:51:05.162Z,68.13
2019-02-26T01:52:06.221Z,68.23
2019-02-26T01:53:05.435Z,68.32
2019-02-26T01:54:07.524Z,68.04
2019-02-26T01:55:05.683Z,68.13
2019-02-26T01:56:05.816Z,67.85
2019-02-26T01:57:08.621Z,68.04
2019-02-26T01:58:06.063Z,68.13
2019-02-26T01:59:06.185Z,67.85
2019-02-26T02:00:06.965Z,68.13
2019-02-26T02:01:06.450Z,67.75
2019-02-26T02:02:06.595Z,67.75
2019-02-26T02:03:06.719Z,67.85
2019-02-26T02:04:08.756Z,67.56
2019-02-26T02:05:07.158Z,67.75
2019-02-26T02:06:10.642Z,67.75
2019-02-26T02:07:07.256Z,67.85
2019-02-26T02:08:10.998Z,67.85
2019-02-26T02:09:09.279Z,68.51
2019-02-26T02:10:07.614Z,68.79
2019-02-26T02:11:09.307Z,68.89
2019-02-26T02:12:08.881Z,68.79
2019-02-26T02:13:09.243Z,68.98
2019-02-26T02:14:09.962Z,68.98
2019-02-26T02:15:09.973Z,68.98
2019-02-26T02:16:09.033Z,69.08
2019-02-26T02:17:10.432Z,68.89
2019-02-26T02:18:08.629Z,68.60
2019-02-26T02:19:08.745Z,68.89
2019-02-26T02:20:10.523Z,68.89
2019-02-26T02:21:08.998Z,68.98
2019-02-26T02:22:09.982Z,68.79
2019-02-26T02:23:09.261Z,68.51
2019-02-26T02:24:12.667Z,68.89
2019-02-26T02:25:09.512Z,68.89
2019-02-26T02:26:11.609Z,68.89
2019-02-26T02:27:09.763Z,68.76
2019-02-26T02:28:09.907Z,68.29
2019-02-26T02:29:12.630Z,68.98
2019-02-26T02:30:14.210Z,68.89
2019-02-26T02:31:10.268Z,68.89
2019-02-26T02:32:10.407Z,68.98
2019-02-26T02:33:10.537Z,69.17
2019-02-26T02:34:10.665Z,68.89
2019-02-26T02:35:12.560Z,69.08
2019-02-26T02:36:11.794Z,68.89
2019-02-26T02:37:11.031Z,68.89
2019-02-26T02:38:11.155Z,69.17
2019-02-26T02:39:15.453Z,68.79
2019-02-26T02:40:11.408Z,68.79
2019-02-26T02:41:11.533Z,69.08
2019-02-26T02:42:13.507Z,68.98
2019-02-26T02:43:13.199Z,68.32
2019-02-26T02:44:14.477Z,68.70
2019-02-26T02:45:16.204Z,69.27
2019-02-26T02:46:12.184Z,69.08
2019-02-26T02:47:12.306Z,68.48
2019-02-26T02:48:14.185Z,68.98
2019-02-26T02:49:15.119Z,69.36
2019-02-26T02:50:15.004Z,69.61
2019-02-26T02:51:13.900Z,69.46
2019-02-26T02:52:12.959Z,69.33
2019-02-26T02:53:13.087Z,69.55
2019-02-26T02:54:15.457Z,68.95
2019-02-26T02:55:16.535Z,69.42
2019-02-26T02:56:15.332Z,69.42
2019-02-26T02:57:13.581Z,69.55
2019-02-26T02:58:15.887Z,68.85
2019-02-26T02:59:14.520Z,69.33
2019-02-26T03:00:13.979Z,69.04
2019-02-26T03:01:16.502Z,68.76
2019-02-26T03:02:15.121Z,68.95
2019-02-26T03:03:14.371Z,69.04
2019-02-26T03:04:17.266Z,69.04
2019-02-26T03:05:14.633Z,69.52
2019-02-26T03:06:14.758Z,69.33
2019-02-26T03:07:15.750Z,69.33
2019-02-26T03:08:16.344Z,69.61
2019-02-26T03:09:17.223Z,69.61
2019-02-26T03:10:15.226Z,69.61
2019-02-26T03:11:15.331Z,69.33
2019-02-26T03:12:15.471Z,68.95
2019-02-26T03:13:16.964Z,69.52
2019-02-26T03:14:16.532Z,69.80
2019-02-26T03:15:15.844Z,69.23
2019-02-26T03:16:18.640Z,69.23
2019-02-26T03:17:18.154Z,69.33
2019-02-26T03:18:16.895Z,69.33
2019-02-26T03:19:17.000Z,69.71
2019-02-26T03:20:16.480Z,69.61
2019-02-26T03:21:19.012Z,69.42
2019-02-26T03:22:18.827Z,69.23
2019-02-26T03:23:19.792Z,69.23
2019-02-26T03:24:17.020Z,69.23
2019-02-26T03:25:20.177Z,69.13
2019-02-26T03:26:17.946Z,69.90
2019-02-26T03:27:17.392Z,69.61
2019-02-26T03:28:17.529Z,70.09
2019-02-26T03:29:17.646Z,69.71
2019-02-26T03:30:26.532Z,69.99
2019-02-26T03:31:17.925Z,69.90
2019-02-26T03:32:18.042Z,69.90
2019-02-26T03:33:18.169Z,70.28
2019-02-26T03:34:21.836Z,70.28
2019-02-26T03:35:19.641Z,70.18
2019-02-26T03:36:19.278Z,70.09
2019-02-26T03:37:18.691Z,69.99
2019-02-26T03:38:20.684Z,69.61
2019-02-26T03:39:18.949Z,69.13
2019-02-26T03:40:20.909Z,69.61
2019-02-26T03:41:22.222Z,69.71
2019-02-26T03:42:21.179Z,69.71
2019-02-26T03:43:19.484Z,69.80
2019-02-26T03:44:19.612Z,69.71
2019-02-26T03:45:23.743Z,69.52
2019-02-26T03:46:19.897Z,69.71
2019-02-26T03:47:20.020Z,69.90
2019-02-26T03:48:20.529Z,70.09
2019-02-26T03:49:20.273Z,70.28
2019-02-26T03:50:20.387Z,69.90
2019-02-26T03:51:20.517Z,69.99
2019-02-26T03:52:20.641Z,69.99
2019-02-26T03:53:25.583Z,70.28
2019-02-26T03:54:20.882Z,70.28
2019-02-26T03:55:21.010Z,70.09
2019-02-26T03:56:21.131Z,70.18
2019-02-26T03:57:22.699Z,70.09
2019-02-26T03:58:21.390Z,70.47
2019-02-26T03:59:21.511Z,70.28
2019-02-26T04:00:21.640Z,69.90
2019-02-26T04:01:21.789Z,70.84
2019-02-26T04:02:23.527Z,70.47
2019-02-26T04:03:22.017Z,70.56
2019-02-26T04:04:23.109Z,70.56
2019-02-26T04:05:22.303Z,70.65
2019-02-26T04:06:22.421Z,70.84
2019-02-26T04:07:25.335Z,70.75
2019-02-26T04:08:24.336Z,70.65
2019-02-26T04:09:22.805Z,70.65
2019-02-26T04:10:22.926Z,70.47
2019-02-26T04:11:25.614Z,70.56
2019-02-26T04:12:23.202Z,70.65
2019-02-26T04:13:23.328Z,70.84
2019-02-26T04:14:25.624Z,70.94
2019-02-26T04:15:26.624Z,71.03
2019-02-26T04:16:23.748Z,70.65
2019-02-26T04:17:27.907Z,70.72
2019-02-26T04:18:23.996Z,70.65
2019-02-26T04:19:26.326Z,70.84
2019-02-26T04:20:26.944Z,70.94
2019-02-26T04:21:24.391Z,71.22
2019-02-26T04:22:26.361Z,71.41
2019-02-26T04:23:24.662Z,71.89
2019-02-26T04:24:25.876Z,71.60
2019-02-26T04:25:27.833Z,71.32
2019-02-26T04:26:26.219Z,71.32
2019-02-26T04:27:25.193Z,71.22
2019-02-26T04:28:30.717Z,71.22
2019-02-26T04:29:25.497Z,70.75
2019-02-26T04:30:25.630Z,70.84
2019-02-26T04:31:25.762Z,70.94
2019-02-26T04:32:25.888Z,70.28
2019-02-26T04:33:27.821Z,70.37
2019-02-26T04:34:26.149Z,70.62
2019-02-26T04:35:26.287Z,70.94
2019-02-26T04:36:26.421Z,70.72
2019-02-26T04:37:27.476Z,71.00
2019-02-26T04:38:28.483Z,70.72
2019-02-26T04:39:26.808Z,70.90
2019-02-26T04:40:28.438Z,71.00
2019-02-26T04:41:27.066Z,71.00
2019-02-26T04:42:27.188Z,71.00
2019-02-26T04:43:27.816Z,70.62
2019-02-26T04:44:29.251Z,70.81
2019-02-26T04:45:27.596Z,71.09
2019-02-26T04:46:28.817Z,70.90
2019-02-26T04:47:30.759Z,71.19
2019-02-26T04:48:29.147Z,70.81
2019-02-26T04:49:30.148Z,71.00
2019-02-26T04:50:31.559Z,71.19
2019-02-26T04:51:28.379Z,71.47
2019-02-26T04:52:29.609Z,71.22
2019-02-26T04:53:29.358Z,71.28
2019-02-26T04:54:31.203Z,71.38
2019-02-26T04:55:29.772Z,71.19
2019-02-26T04:56:31.229Z,71.32
2019-02-26T04:57:29.138Z,71.32
2019-02-26T04:58:29.263Z,71.28
2019-02-26T04:59:29.882Z,71.70
2019-02-26T05:00:32.190Z,71.47
2019-02-26T05:01:29.638Z,71.57
2019-02-26T05:02:29.781Z,71.47
2019-02-26T05:03:29.909Z,71.66
2019-02-26T05:04:30.724Z,71.57
2019-02-26T05:05:31.964Z,71.57
2019-02-26T05:06:30.288Z,71.66
2019-02-26T05:07:32.784Z,71.66
2019-02-26T05:08:32.110Z,71.51
2019-02-26T05:09:32.606Z,71.57
2019-02-26T05:10:32.305Z,71.66
2019-02-26T05:11:34.512Z,71.47
2019-02-26T05:12:34.163Z,71.85
2019-02-26T05:13:32.657Z,71.76
2019-02-26T05:14:31.349Z,71.70
2019-02-26T05:15:33.266Z,71.76
2019-02-26T05:16:34.179Z,71.76
2019-02-26T05:17:33.303Z,71.85
2019-02-26T05:18:34.458Z,71.85
2019-02-26T05:19:31.995Z,71.66
2019-02-26T05:20:34.122Z,71.28
2019-02-26T05:21:34.954Z,71.09
2019-02-26T05:22:33.386Z,71.09
2019-02-26T05:23:33.657Z,71.47
2019-02-26T05:24:32.607Z,71.66
2019-02-26T05:25:35.068Z,71.76
2019-02-26T05:26:32.867Z,71.85
2019-02-26T05:27:32.986Z,71.76
2019-02-26T05:28:37.692Z,71.76
2019-02-26T05:29:33.247Z,71.38
2019-02-26T05:30:33.410Z,71.47
2019-02-26T05:31:35.841Z,71.47
2019-02-26T05:32:35.526Z,71.09
2019-02-26T05:33:33.741Z,71.28
2019-02-26T05:34:33.890Z,71.57
2019-02-26T05:35:33.990Z,71.47
2019-02-26T05:36:36.731Z,71.38
2019-02-26T05:37:37.006Z,71.28
2019-02-26T05:38:34.927Z,72.04
2019-02-26T05:39:34.512Z,71.85
2019-02-26T05:40:37.456Z,71.76
2019-02-26T05:41:34.765Z,71.85
2019-02-26T05:42:34.926Z,72.33
2019-02-26T05:43:35.052Z,72.33
2019-02-26T05:44:35.183Z,72.71
2019-02-26T05:45:35.700Z,72.61
2019-02-26T05:46:35.451Z,72.89
2019-02-26T05:47:35.598Z,72.89
2019-02-26T05:48:37.229Z,72.80
2019-02-26T05:49:38.657Z,72.61
2019-02-26T05:50:38.432Z,72.99
2019-02-26T05:51:38.048Z,72.52
2019-02-26T05:52:36.239Z,72.04
2019-02-26T05:53:36.387Z,72.52
2019-02-26T05:54:36.505Z,72.52
2019-02-26T05:55:36.685Z,72.23
2019-02-26T05:56:38.197Z,72.14
2019-02-26T05:57:36.938Z,71.66
2019-02-26T05:58:39.432Z,71.85
2019-02-26T05:59:37.184Z,71.76
2019-02-26T06:00:37.307Z,71.95
2019-02-26T06:01:37.438Z,72.33
2019-02-26T06:02:40.164Z,72.33
2019-02-26T06:03:38.535Z,72.42
2019-02-26T06:04:40.460Z,72.14
2019-02-26T06:05:41.146Z,72.99
2019-02-26T06:06:38.095Z,72.71
2019-02-26T06:07:38.777Z,73.27
2019-02-26T06:08:40.705Z,73.75
2019-02-26T06:09:38.495Z,73.84
2019-02-26T06:10:38.598Z,73.94
2019-02-26T06:11:41.467Z,73.84
2019-02-26T06:12:40.888Z,73.84
2019-02-26T06:13:41.127Z,73.75
2019-02-26T06:14:39.468Z,73.75
2019-02-26T06:15:39.228Z,73.84
2019-02-26T06:16:39.350Z,73.75
2019-02-26T06:17:43.090Z,73.18
2019-02-26T06:18:41.955Z,73.08
2019-02-26T06:19:42.088Z,72.42
2019-02-26T06:20:39.879Z,72.89
2019-02-26T06:21:43.986Z,72.99
2019-02-26T06:22:40.126Z,72.71
2019-02-26T06:23:40.235Z,72.23
2019-02-26T06:24:40.383Z,72.04
2019-02-26T06:25:40.509Z,72.52
2019-02-26T06:26:42.809Z,72.52
2019-02-26T06:27:40.766Z,72.23
2019-02-26T06:28:42.830Z,72.42
2019-02-26T06:29:41.004Z,72.23
2019-02-26T06:30:41.126Z,72.23
2019-02-26T06:31:42.299Z,71.85
2019-02-26T06:32:42.642Z,71.95
2019-02-26T06:33:43.690Z,71.85
2019-02-26T06:34:41.668Z,72.14
2019-02-26T06:35:42.841Z,72.04
2019-02-26T06:36:43.834Z,71.85
2019-02-26T06:37:42.045Z,72.04
2019-02-26T06:38:42.181Z,72.33
2019-02-26T06:39:42.294Z,72.86
2019-02-26T06:40:46.466Z,72.57
2019-02-26T06:41:44.386Z,73.52
2019-02-26T06:42:42.676Z,73.80
2019-02-26T06:43:47.489Z,74.37
2019-02-26T06:44:43.812Z,74.28
2019-02-26T06:45:43.734Z,74.95
2019-02-26T06:46:43.176Z,75.04
2019-02-26T06:47:45.284Z,75.00
2019-02-26T06:48:43.428Z,75.13
2019-02-26T06:49:45.616Z,75.47
2019-02-26T06:50:43.690Z,75.85
2019-02-26T06:51:45.076Z,76.46
2019-02-26T06:52:46.883Z,76.17
2019-02-26T06:53:47.077Z,76.36
2019-02-26T06:54:47.754Z,76.27
2019-02-26T06:55:44.306Z,76.55
2019-02-26T06:56:46.189Z,76.74
2019-02-26T06:57:47.173Z,77.03
2019-02-26T06:58:45.141Z,77.40
2019-02-26T06:59:44.810Z,77.97
2019-02-26T07:00:46.402Z,77.59
2019-02-26T07:01:45.137Z,78.02
2019-02-26T07:02:46.147Z,77.64
2019-02-26T07:03:45.380Z,77.25
2019-02-26T07:04:45.529Z,76.59
2019-02-26T07:05:46.587Z,76.78
2019-02-26T07:06:45.777Z,75.45
2019-02-26T07:07:45.898Z,74.98
2019-02-26T07:08:47.212Z,74.60
2019-02-26T07:09:46.170Z,73.84
2019-02-26T07:10:46.296Z,73.84
2019-02-26T07:11:46.445Z,73.46
2019-02-26T07:12:48.750Z,72.89
2019-02-26T07:13:46.678Z,72.71
2019-02-26T07:14:48.374Z,73.03
2019-02-26T07:15:46.928Z,72.89
2019-02-26T07:16:47.047Z,72.36
2019-02-26T07:17:47.194Z,72.27
2019-02-26T07:18:47.315Z,72.27
2019-02-26T07:19:47.436Z,72.55
2019-02-26T07:20:50.657Z,72.45
2019-02-26T07:21:48.142Z,72.36
2019-02-26T07:22:49.644Z,72.17
2019-02-26T07:23:47.961Z,72.08
2019-02-26T07:24:49.657Z,72.17
2019-02-26T07:25:48.209Z,72.17
2019-02-26T07:26:48.440Z,72.17
2019-02-26T07:27:58.721Z,72.08
2019-02-26T07:28:49.202Z,71.98
2019-02-26T07:29:52.184Z,72.08
2019-02-26T07:30:48.805Z,71.80
2019-02-26T07:31:49.531Z,72.17
2019-02-26T07:32:49.055Z,71.41
2019-02-26T07:33:51.033Z,71.70
2019-02-26T07:34:50.191Z,71.80
2019-02-26T07:35:49.436Z,71.89
2019-02-26T07:36:50.694Z,72.55
2019-02-26T07:37:49.697Z,72.17
2019-02-26T07:38:52.005Z,72.45
2019-02-26T07:39:51.582Z,72.55
2019-02-26T07:40:50.071Z,72.08
2019-02-26T07:41:51.767Z,72.93
2019-02-26T07:42:50.340Z,73.03
2019-02-26T07:43:51.935Z,73.12
2019-02-26T07:44:50.580Z,72.74
2019-02-26T07:45:51.322Z,72.74
2019-02-26T07:46:50.837Z,73.03
2019-02-26T07:47:53.274Z,73.03
2019-02-26T07:48:53.821Z,73.60
2019-02-26T07:49:51.229Z,74.64
2019-02-26T07:50:51.351Z,74.73
2019-02-26T07:51:51.479Z,75.21
2019-02-26T07:52:52.237Z,74.83
2019-02-26T07:53:54.302Z,75.49
2019-02-26T07:54:51.972Z,74.54
2019-02-26T07:55:51.967Z,73.69
2019-02-26T07:56:52.466Z,73.50
2019-02-26T07:57:53.180Z,72.78
2019-02-26T07:58:52.352Z,72.84
2019-02-26T07:59:52.482Z,73.25
2019-02-26T08:00:52.604Z,72.30
2019-02-26T08:01:52.736Z,72.11
2019-02-26T08:02:56.460Z,72.02
2019-02-26T08:03:53.339Z,72.11
2019-02-26T08:04:53.110Z,72.02
2019-02-26T08:05:53.283Z,72.21
2019-02-26T08:06:54.988Z,72.02
2019-02-26T08:07:56.294Z,71.80
2019-02-26T08:08:53.641Z,72.08
2019-02-26T08:09:53.784Z,72.55
2019-02-26T08:10:53.910Z,72.74
2019-02-26T08:11:54.057Z,73.88
2019-02-26T08:12:56.069Z,74.79
2019-02-26T08:13:56.551Z,75.36
2019-02-26T08:14:54.446Z,75.55
2019-02-26T08:15:55.234Z,75.55
2019-02-26T08:16:56.216Z,76.59
2019-02-26T08:17:57.506Z,76.87
2019-02-26T08:18:57.147Z,76.73
2019-02-26T08:19:55.103Z,76.73
2019-02-26T08:20:57.477Z,76.82
2019-02-26T08:21:57.139Z,76.34
2019-02-26T08:22:56.383Z,76.25
2019-02-26T08:23:55.587Z,76.44
2019-02-26T08:24:58.007Z,75.68
2019-02-26T08:25:57.842Z,76.06
2019-02-26T08:26:55.973Z,75.40
2019-02-26T08:27:57.034Z,75.49
2019-02-26T08:28:56.241Z,75.21
2019-02-26T08:29:57.010Z,75.31
2019-02-26T08:30:57.288Z,75.78
2019-02-26T08:31:57.485Z,75.40
2019-02-26T08:32:58.919Z,75.87
2019-02-26T08:33:56.876Z,75.87
2019-02-26T08:35:00.006Z,75.49
2019-02-26T08:35:57.151Z,75.40
2019-02-26T08:36:57.270Z,75.59
2019-02-26T08:37:57.403Z,75.40
2019-02-26T08:38:57.522Z,75.59
2019-02-26T08:39:58.191Z,75.49
2019-02-26T08:40:57.829Z,75.40
2019-02-26T08:41:57.962Z,75.21
2019-02-26T08:42:58.081Z,75.31
2019-02-26T08:43:58.871Z,75.49
2019-02-26T08:44:58.402Z,75.31
2019-02-26T08:45:58.493Z,76.06
2019-02-26T08:46:58.617Z,75.78
2019-02-26T08:47:58.760Z,76.25
2019-02-26T08:49:07.853Z,76.82
2019-02-26T08:50:01.183Z,76.92
2019-02-26T08:51:03.045Z,76.63
2019-02-26T08:51:59.282Z,76.73
2019-02-26T08:52:59.425Z,76.95
2019-02-26T08:53:59.546Z,76.86
2019-02-26T08:54:59.658Z,76.44
2019-02-26T08:56:01.954Z,75.81
2019-02-26T08:56:59.922Z,76.01
2019-02-26T08:58:00.048Z,75.81
2019-02-26T08:59:00.970Z,76.48
2019-02-26T09:00:00.347Z,76.95
2019-02-26T09:01:00.441Z,76.67
2019-02-26T09:02:00.567Z,76.86
2019-02-26T09:03:00.715Z,76.48
2019-02-26T09:04:00.882Z,76.29
2019-02-26T09:05:01.628Z,76.76
2019-02-26T09:06:10.859Z,77.09
2019-02-26T09:07:02.093Z,76.90
2019-02-26T09:08:01.346Z,76.52
2019-02-26T09:09:02.718Z,75.85
2019-02-26T09:10:01.617Z,76.04
2019-02-26T09:11:03.357Z,76.32
2019-02-26T09:12:03.196Z,76.80
2019-02-26T09:13:02.000Z,76.84
2019-02-26T09:14:04.327Z,75.70
2019-02-26T09:15:02.258Z,75.04
2019-02-26T09:16:03.125Z,74.18
2019-02-26T09:17:04.559Z,74.18
2019-02-26T09:18:02.650Z,74.47
2019-02-26T09:19:02.787Z,74.08
2019-02-26T09:20:09.309Z,74.18
2019-02-26T09:21:03.047Z,73.90
2019-02-26T09:22:03.175Z,73.52
2019-02-26T09:23:03.314Z,72.85
2019-02-26T09:24:07.093Z,72.99
2019-02-26T09:25:03.592Z,72.79
2019-02-26T09:26:05.133Z,72.79
2019-02-26T09:27:05.057Z,73.74
2019-02-26T09:28:03.983Z,72.92
2019-02-26T09:29:04.121Z,72.26
2019-02-26T09:30:05.940Z,71.78
2019-02-26T09:31:06.645Z,70.49
2019-02-26T09:32:06.706Z,70.30
2019-02-26T09:33:06.372Z,70.30
2019-02-26T09:34:04.779Z,69.82
2019-02-26T09:35:04.980Z,69.82
2019-02-26T09:36:05.061Z,68.59
2019-02-26T09:37:07.254Z,68.11
2019-02-26T09:38:05.337Z,67.92
2019-02-26T09:39:06.290Z,68.30
2019-02-26T09:40:05.587Z,68.30
2019-02-26T09:41:05.707Z,68.40
2019-02-26T09:42:06.498Z,68.90
2019-02-26T09:43:06.324Z,68.30
2019-02-26T09:44:06.690Z,68.30
2019-02-26T09:45:06.238Z,68.43
2019-02-26T09:46:09.002Z,68.24
2019-02-26T09:47:07.584Z,68.05
2019-02-26T09:48:06.637Z,68.15
2019-02-26T09:49:10.517Z,68.33
2019-02-26T09:50:06.908Z,67.76
2019-02-26T09:51:08.838Z,68.81
2019-02-26T09:52:07.167Z,68.15
2019-02-26T09:53:07.289Z,68.24
2019-02-26T09:54:07.450Z,67.89
2019-02-26T09:55:07.550Z,67.80
2019-02-26T09:56:07.675Z,67.22
2019-02-26T09:57:07.823Z,67.22
2019-02-26T09:58:07.944Z,67.70
2019-02-26T09:59:09.826Z,67.61
2019-02-26T10:00:08.202Z,67.89
2019-02-26T10:01:09.090Z,66.85
2019-02-26T10:02:08.447Z,66.02
2019-02-26T10:03:11.089Z,66.66
2019-02-26T10:04:08.707Z,66.88
2019-02-26T10:05:11.192Z,67.16
2019-02-26T10:06:08.976Z,66.50
2019-02-26T10:07:09.862Z,65.26
2019-02-26T10:08:09.252Z,64.50
2019-02-26T10:09:11.284Z,64.97
2019-02-26T10:10:11.486Z,65.58
2019-02-26T10:11:09.643Z,64.43
2019-02-26T10:12:12.294Z,64.34
2019-02-26T10:13:09.903Z,64.62
2019-02-26T10:14:10.957Z,64.72
2019-02-26T10:15:10.279Z,64.62
2019-02-26T10:16:10.278Z,64.24
2019-02-26T10:17:12.276Z,63.96
2019-02-26T10:18:10.574Z,62.75
2019-02-26T10:19:12.481Z,63.32
2019-02-26T10:20:10.813Z,62.37
2019-02-26T10:21:12.297Z,62.37
2019-02-26T10:22:13.670Z,61.51
2019-02-26T10:23:11.258Z,61.41
2019-02-26T10:24:11.383Z,62.56
2019-02-26T10:25:11.514Z,61.99
2019-02-26T10:26:11.654Z,62.27
2019-02-26T10:27:14.033Z,61.92
2019-02-26T10:28:14.074Z,62.11
2019-02-26T10:29:12.062Z,61.35
2019-02-26T10:30:14.237Z,62.40
2019-02-26T10:31:12.318Z,61.16
2019-02-26T10:32:12.434Z,59.82
2019-02-26T10:33:12.562Z,61.35
2019-02-26T10:34:15.541Z,61.66
2019-02-26T10:35:15.641Z,62.52
2019-02-26T10:36:15.509Z,62.43
2019-02-26T10:37:13.126Z,61.10
2019-02-26T10:38:13.276Z,61.03
2019-02-26T10:39:15.090Z,60.27
2019-02-26T10:40:14.563Z,60.27
2019-02-26T10:41:13.679Z,58.93
2019-02-26T10:42:13.822Z,58.93
2019-02-26T10:43:13.962Z,59.88
2019-02-26T10:44:14.757Z,58.48
2019-02-26T10:45:14.213Z,58.19
2019-02-26T10:46:14.375Z,59.72
2019-02-26T10:47:14.527Z,57.93
2019-02-26T10:48:18.519Z,57.26
2019-02-26T10:49:14.769Z,56.05
2019-02-26T10:50:16.309Z,55.76
2019-02-26T10:51:16.826Z,54.80
2019-02-26T10:52:16.764Z,55.60
2019-02-26T10:53:18.973Z,54.64
2019-02-26T10:54:17.959Z,54.74
2019-02-26T10:55:17.724Z,54.10
2019-02-26T10:56:15.737Z,53.81
2019-02-26T10:57:15.867Z,53.23
2019-02-26T10:58:16.024Z,53.26
2019-02-26T10:59:19.647Z,52.50
2019-02-26T11:00:16.308Z,52.40
2019-02-26T11:01:17.792Z,51.82
2019-02-26T11:02:17.815Z,51.54
2019-02-26T11:03:17.406Z,51.18
2019-02-26T11:04:16.879Z,51.56
2019-02-26T11:05:20.371Z,50.63
2019-02-26T11:06:19.066Z,49.21
2019-02-26T11:07:17.286Z,47.58
2019-02-26T11:08:17.426Z,46.74
2019-02-26T11:09:21.233Z,46.94
2019-02-26T11:10:20.245Z,46.67
2019-02-26T11:11:18.935Z,45.61
2019-02-26T11:12:20.113Z,45.52
2019-02-26T11:13:20.208Z,45.54
2019-02-26T11:14:19.451Z,44.87
2019-02-26T11:15:18.426Z,44.48
2019-02-26T11:16:24.880Z,44.00
2019-02-26T11:17:20.952Z,44.31
2019-02-26T11:18:21.106Z,43.84
2019-02-26T11:19:19.019Z,44.00
2019-02-26T11:20:21.591Z,44.48
2019-02-26T11:21:19.291Z,44.46
2019-02-26T11:22:21.325Z,45.54
2019-02-26T11:23:30.019Z,45.83
2019-02-26T11:24:19.717Z,44.87
2019-02-26T11:25:22.467Z,44.02
2019-02-26T11:26:20.008Z,44.12
2019-02-26T11:27:20.166Z,43.07
2019-02-26T11:28:20.764Z,42.39
2019-02-26T11:29:20.430Z,40.85
2019-02-26T11:30:23.110Z,40.95
2019-02-26T11:31:25.313Z,40.66
2019-02-26T11:32:20.857Z,40.58
2019-02-26T11:33:20.993Z,41.26
2019-02-26T11:34:21.146Z,41.38
2019-02-26T11:35:22.552Z,42.24
2019-02-26T11:36:21.397Z,42.32
2019-02-26T11:37:22.619Z,41.83
2019-02-26T11:38:22.186Z,41.16
2019-02-26T11:39:21.836Z,41.08
2019-02-26T11:40:23.038Z,40.41
2019-02-26T11:41:23.814Z,41.49
2019-02-26T11:42:24.162Z,39.78
2019-02-26T11:43:25.537Z,38.16
2019-02-26T11:44:23.571Z,37.79
2019-02-26T11:45:23.175Z,36.36
2019-02-26T11:50:11.762Z,33.23
2019-02-26T11:51:11.909Z,32.57
2019-02-26T11:52:09.830Z,32.49
2019-02-26T11:53:10.075Z,31.44
2019-02-26T11:54:10.741Z,30.29
2019-02-26T11:55:11.254Z,28.85
2019-02-26T11:56:10.420Z,28.96
2019-02-26T11:57:12.878Z,28.87
2019-02-26T11:58:13.110Z,28.39
2019-02-26T11:59:12.601Z,27.81
2019-02-26T12:00:11.036Z,27.14
2019-02-26T12:01:11.187Z,25.88
2019-02-26T12:02:11.342Z,25.79
2019-02-26T12:03:11.505Z,25.41
2019-02-26T12:04:14.278Z,25.12
2019-02-26T12:05:11.833Z,22.71
2019-02-26T12:06:11.982Z,21.45
2019-02-26T12:07:12.135Z,20.30
2019-02-26T12:08:16.331Z,21.08
2019-02-26T12:09:14.205Z,20.60
2019-02-26T12:10:14.578Z,20.80
2019-02-26T12:11:17.564Z,20.04
2019-02-26T12:12:12.889Z,20.42
2019-02-26T12:13:14.635Z,20.14
2019-02-26T12:14:13.683Z,19.74
2019-02-26T12:15:15.182Z,17.70
2019-02-26T12:16:13.497Z,17.60
2019-02-26T12:17:13.646Z,16.93
2019-02-26T12:18:15.465Z,16.64
2019-02-26T12:19:13.960Z,16.35
2019-02-26T12:20:14.766Z,16.25
2019-02-26T12:21:14.271Z,18.19
2019-02-26T12:22:14.422Z,16.93
2019-02-26T12:23:16.140Z,16.46
2019-02-26T12:24:14.761Z,15.09
2019-02-26T12:25:14.926Z,14.51
2019-02-26T12:26:17.279Z,14.62
2019-02-26T12:27:18.158Z,14.90
2019-02-26T12:28:15.383Z,16.46
2019-02-26T12:29:16.197Z,15.69
2019-02-26T12:30:16.277Z,13.83
2019-02-26T12:31:15.850Z,13.44
2019-02-26T12:32:17.175Z,13.64
2019-02-26T12:33:16.161Z,13.15
2019-02-26T12:34:17.655Z,14.42
2019-02-26T12:35:17.891Z,15.88
2019-02-26T12:36:16.620Z,16.27
2019-02-26T12:37:16.772Z,15.00
2019-02-26T12:38:18.850Z,14.22
2019-02-26T12:39:18.675Z,13.64
2019-02-26T12:40:19.301Z,14.03
2019-02-26T12:41:19.046Z,13.84
2019-02-26T12:42:18.734Z,14.33
2019-02-26T12:43:19.122Z,13.65
2019-02-26T12:44:17.954Z,13.95
2019-02-26T12:45:18.080Z,13.38
2019-02-26T12:46:19.740Z,13.19
2019-02-26T12:47:21.637Z,14.55
2019-02-26T12:48:21.962Z,14.95
2019-02-26T12:49:22.422Z,14.47
2019-02-26T12:50:18.855Z,13.78
2019-02-26T12:51:20.024Z,13.69
2019-02-26T12:52:23.584Z,13.20
2019-02-26T12:53:20.666Z,12.81
2019-02-26T12:54:19.488Z,13.59
2019-02-26T12:55:21.555Z,13.68
2019-02-26T12:56:20.847Z,12.31
2019-02-26T12:57:23.205Z,10.74
2019-02-26T12:58:21.363Z,10.45